sensor_id;sensor_type;location;lat;lon;timestamp;P1;durP1;ratioP1;P2;durP2;ratioP2
31424;SDS011;18054;51.572;7.372;2022-07-29T00:00:14;9.13;;;2.42;;
31424;SDS011;18054;51.572;7.372;2022-07-29T00:02:42;6.50;;;1.23;;
31424;SDS011;18054;51.572;7.372;2022-07-29T00:05:10;3.95;;;1.23;;
31424;SDS011;18054;51.572;7.372;2022-07-29T00:07:39;12.27;;;2.20;;
31424;SDS011;18054;51.572;7.372;2022-07-29T00:10:07;11.20;;;1.63;;
31424;SDS011;18054;51.572;7.372;2022-07-29T00:12:35;11.32;;;1.40;;
31424;SDS011;18054;51.572;7.372;2022-07-29T00:15:04;8.07;;;1.58;;
31424;SDS011;18054;51.572;7.372;2022-07-29T00:17:32;6.72;;;1.75;;
31424;SDS011;18054;51.572;7.372;2022-07-29T00:22:27;5.30;;;1.63;;
31424;SDS011;18054;51.572;7.372;2022-07-29T00:24:54;9.95;;;1.30;;
31424;SDS011;18054;51.572;7.372;2022-07-29T00:27:22;5.18;;;1.15;;
31424;SDS011;18054;51.572;7.372;2022-07-29T00:29:49;13.95;;;1.42;;
31424;SDS011;18054;51.572;7.372;2022-07-29T00:32:18;11.85;;;1.98;;
31424;SDS011;18054;51.572;7.372;2022-07-29T00:34:45;7.28;;;1.52;;
31424;SDS011;18054;51.572;7.372;2022-07-29T00:37:31;16.15;;;1.60;;
31424;SDS011;18054;51.572;7.372;2022-07-29T00:39:58;8.25;;;1.40;;
31424;SDS011;18054;51.572;7.372;2022-07-29T00:42:26;9.63;;;1.85;;
31424;SDS011;18054;51.572;7.372;2022-07-29T00:44:54;6.25;;;2.15;;
31424;SDS011;18054;51.572;7.372;2022-07-29T00:47:22;9.75;;;1.80;;
31424;SDS011;18054;51.572;7.372;2022-07-29T00:49:50;8.38;;;1.77;;
31424;SDS011;18054;51.572;7.372;2022-07-29T00:52:17;7.63;;;1.77;;
31424;SDS011;18054;51.572;7.372;2022-07-29T00:54:45;10.40;;;2.30;;
31424;SDS011;18054;51.572;7.372;2022-07-29T00:57:12;10.05;;;1.60;;
31424;SDS011;18054;51.572;7.372;2022-07-29T00:59:40;10.57;;;1.33;;
31424;SDS011;18054;51.572;7.372;2022-07-29T01:02:07;7.55;;;1.83;;
31424;SDS011;18054;51.572;7.372;2022-07-29T01:04:36;6.78;;;1.70;;
31424;SDS011;18054;51.572;7.372;2022-07-29T01:07:04;4.85;;;1.83;;
31424;SDS011;18054;51.572;7.372;2022-07-29T01:09:32;7.65;;;1.83;;
31424;SDS011;18054;51.572;7.372;2022-07-29T01:12:12;6.25;;;1.25;;
31424;SDS011;18054;51.572;7.372;2022-07-29T01:14:40;4.03;;;1.38;;
31424;SDS011;18054;51.572;7.372;2022-07-29T01:17:09;13.63;;;2.45;;
31424;SDS011;18054;51.572;7.372;2022-07-29T01:19:44;6.13;;;1.58;;
31424;SDS011;18054;51.572;7.372;2022-07-29T01:22:17;4.20;;;1.60;;
31424;SDS011;18054;51.572;7.372;2022-07-29T01:24:51;6.03;;;1.42;;
31424;SDS011;18054;51.572;7.372;2022-07-29T01:27:27;9.23;;;1.80;;
31424;SDS011;18054;51.572;7.372;2022-07-29T01:29:59;6.15;;;1.23;;
31424;SDS011;18054;51.572;7.372;2022-07-29T01:32:31;7.57;;;1.50;;
31424;SDS011;18054;51.572;7.372;2022-07-29T01:35:01;7.93;;;1.67;;
31424;SDS011;18054;51.572;7.372;2022-07-29T01:37:32;8.25;;;1.80;;
31424;SDS011;18054;51.572;7.372;2022-07-29T01:40:01;15.15;;;1.55;;
31424;SDS011;18054;51.572;7.372;2022-07-29T01:42:30;10.45;;;1.63;;
31424;SDS011;18054;51.572;7.372;2022-07-29T01:45:02;9.07;;;1.63;;
31424;SDS011;18054;51.572;7.372;2022-07-29T01:47:33;6.85;;;1.50;;
31424;SDS011;18054;51.572;7.372;2022-07-29T01:50:02;4.85;;;1.45;;
31424;SDS011;18054;51.572;7.372;2022-07-29T01:52:34;9.48;;;2.22;;
31424;SDS011;18054;51.572;7.372;2022-07-29T01:55:04;4.43;;;1.30;;
31424;SDS011;18054;51.572;7.372;2022-07-29T01:57:33;3.25;;;1.35;;
31424;SDS011;18054;51.572;7.372;2022-07-29T02:00:04;11.52;;;1.58;;
31424;SDS011;18054;51.572;7.372;2022-07-29T02:02:40;9.25;;;1.60;;
31424;SDS011;18054;51.572;7.372;2022-07-29T02:05:09;6.25;;;1.73;;
31424;SDS011;18054;51.572;7.372;2022-07-29T02:07:37;7.78;;;1.88;;
31424;SDS011;18054;51.572;7.372;2022-07-29T02:10:07;8.60;;;1.30;;
31424;SDS011;18054;51.572;7.372;2022-07-29T02:12:36;10.00;;;1.70;;
31424;SDS011;18054;51.572;7.372;2022-07-29T02:15:06;9.70;;;1.88;;
31424;SDS011;18054;51.572;7.372;2022-07-29T02:17:38;6.20;;;1.58;;
31424;SDS011;18054;51.572;7.372;2022-07-29T02:20:07;3.10;;;1.23;;
31424;SDS011;18054;51.572;7.372;2022-07-29T02:22:37;7.72;;;1.52;;
31424;SDS011;18054;51.572;7.372;2022-07-29T02:25:05;12.13;;;2.17;;
31424;SDS011;18054;51.572;7.372;2022-07-29T02:27:39;9.27;;;2.00;;
31424;SDS011;18054;51.572;7.372;2022-07-29T02:30:08;7.70;;;1.92;;
31424;SDS011;18054;51.572;7.372;2022-07-29T02:32:37;11.40;;;1.95;;
31424;SDS011;18054;51.572;7.372;2022-07-29T02:35:06;11.25;;;1.55;;
31424;SDS011;18054;51.572;7.372;2022-07-29T02:37:35;7.88;;;2.72;;
31424;SDS011;18054;51.572;7.372;2022-07-29T02:40:03;9.63;;;1.70;;
31424;SDS011;18054;51.572;7.372;2022-07-29T02:44:58;9.95;;;1.58;;
31424;SDS011;18054;51.572;7.372;2022-07-29T02:47:29;7.68;;;2.05;;
31424;SDS011;18054;51.572;7.372;2022-07-29T02:50:08;6.38;;;1.40;;
31424;SDS011;18054;51.572;7.372;2022-07-29T02:52:37;5.38;;;2.00;;
31424;SDS011;18054;51.572;7.372;2022-07-29T02:55:07;9.88;;;1.98;;
31424;SDS011;18054;51.572;7.372;2022-07-29T02:57:39;8.50;;;1.83;;
31424;SDS011;18054;51.572;7.372;2022-07-29T03:00:21;8.98;;;2.38;;
31424;SDS011;18054;51.572;7.372;2022-07-29T03:02:50;8.38;;;1.92;;
31424;SDS011;18054;51.572;7.372;2022-07-29T03:05:19;9.57;;;1.60;;
31424;SDS011;18054;51.572;7.372;2022-07-29T03:07:49;10.93;;;1.95;;
31424;SDS011;18054;51.572;7.372;2022-07-29T03:10:18;8.15;;;1.95;;
31424;SDS011;18054;51.572;7.372;2022-07-29T03:12:45;13.18;;;2.30;;
31424;SDS011;18054;51.572;7.372;2022-07-29T03:15:14;7.63;;;1.50;;
31424;SDS011;18054;51.572;7.372;2022-07-29T03:17:41;9.10;;;1.85;;
31424;SDS011;18054;51.572;7.372;2022-07-29T03:20:11;9.15;;;2.25;;
31424;SDS011;18054;51.572;7.372;2022-07-29T03:22:39;12.80;;;2.03;;
31424;SDS011;18054;51.572;7.372;2022-07-29T03:25:09;20.85;;;2.20;;
31424;SDS011;18054;51.572;7.372;2022-07-29T03:27:37;12.27;;;1.75;;
31424;SDS011;18054;51.572;7.372;2022-07-29T03:30:05;11.77;;;2.08;;
31424;SDS011;18054;51.572;7.372;2022-07-29T03:32:34;8.63;;;1.70;;
31424;SDS011;18054;51.572;7.372;2022-07-29T03:35:01;7.25;;;1.92;;
31424;SDS011;18054;51.572;7.372;2022-07-29T03:37:30;13.32;;;2.08;;
31424;SDS011;18054;51.572;7.372;2022-07-29T03:40:00;9.05;;;2.05;;
31424;SDS011;18054;51.572;7.372;2022-07-29T03:42:30;6.75;;;2.13;;
31424;SDS011;18054;51.572;7.372;2022-07-29T03:45:00;12.60;;;2.08;;
31424;SDS011;18054;51.572;7.372;2022-07-29T03:47:28;12.23;;;1.80;;
31424;SDS011;18054;51.572;7.372;2022-07-29T03:50:16;5.13;;;1.83;;
31424;SDS011;18054;51.572;7.372;2022-07-29T03:52:47;9.38;;;2.03;;
31424;SDS011;18054;51.572;7.372;2022-07-29T03:55:15;11.80;;;1.92;;
31424;SDS011;18054;51.572;7.372;2022-07-29T03:57:42;7.40;;;2.15;;
31424;SDS011;18054;51.572;7.372;2022-07-29T04:00:11;13.20;;;2.40;;
31424;SDS011;18054;51.572;7.372;2022-07-29T04:05:11;11.10;;;2.10;;
31424;SDS011;18054;51.572;7.372;2022-07-29T04:07:38;19.30;;;2.45;;
31424;SDS011;18054;51.572;7.372;2022-07-29T04:10:07;11.88;;;2.53;;
31424;SDS011;18054;51.572;7.372;2022-07-29T04:12:35;6.80;;;2.03;;
31424;SDS011;18054;51.572;7.372;2022-07-29T04:15:03;11.73;;;2.13;;
31424;SDS011;18054;51.572;7.372;2022-07-29T04:17:30;11.07;;;2.20;;
31424;SDS011;18054;51.572;7.372;2022-07-29T04:19:58;8.88;;;1.98;;
31424;SDS011;18054;51.572;7.372;2022-07-29T04:22:25;11.02;;;1.65;;
31424;SDS011;18054;51.572;7.372;2022-07-29T04:24:53;11.82;;;1.95;;
31424;SDS011;18054;51.572;7.372;2022-07-29T04:27:29;6.45;;;1.80;;
31424;SDS011;18054;51.572;7.372;2022-07-29T04:29:57;14.48;;;2.15;;
31424;SDS011;18054;51.572;7.372;2022-07-29T04:32:25;11.35;;;1.88;;
31424;SDS011;18054;51.572;7.372;2022-07-29T04:34:52;13.82;;;1.50;;
31424;SDS011;18054;51.572;7.372;2022-07-29T04:37:20;12.25;;;2.05;;
31424;SDS011;18054;51.572;7.372;2022-07-29T04:39:47;19.83;;;2.25;;
31424;SDS011;18054;51.572;7.372;2022-07-29T04:42:14;18.17;;;2.10;;
31424;SDS011;18054;51.572;7.372;2022-07-29T04:44:43;18.35;;;2.15;;
31424;SDS011;18054;51.572;7.372;2022-07-29T04:47:15;38.80;;;2.67;;
31424;SDS011;18054;51.572;7.372;2022-07-29T04:49:44;13.15;;;2.00;;
31424;SDS011;18054;51.572;7.372;2022-07-29T04:52:11;18.65;;;2.15;;
31424;SDS011;18054;51.572;7.372;2022-07-29T04:54:38;10.90;;;2.25;;
31424;SDS011;18054;51.572;7.372;2022-07-29T04:57:06;7.68;;;1.92;;
31424;SDS011;18054;51.572;7.372;2022-07-29T04:59:33;11.63;;;1.83;;
31424;SDS011;18054;51.572;7.372;2022-07-29T05:02:02;14.48;;;3.08;;
31424;SDS011;18054;51.572;7.372;2022-07-29T05:04:30;25.30;;;2.40;;
31424;SDS011;18054;51.572;7.372;2022-07-29T05:06:57;10.90;;;2.40;;
31424;SDS011;18054;51.572;7.372;2022-07-29T05:09:25;14.48;;;2.10;;
31424;SDS011;18054;51.572;7.372;2022-07-29T05:11:52;11.93;;;1.90;;
31424;SDS011;18054;51.572;7.372;2022-07-29T05:14:19;12.35;;;2.15;;
31424;SDS011;18054;51.572;7.372;2022-07-29T05:16:48;12.90;;;2.45;;
31424;SDS011;18054;51.572;7.372;2022-07-29T05:19:18;10.27;;;2.00;;
31424;SDS011;18054;51.572;7.372;2022-07-29T05:21:45;10.48;;;2.00;;
31424;SDS011;18054;51.572;7.372;2022-07-29T05:24:13;13.95;;;1.85;;
31424;SDS011;18054;51.572;7.372;2022-07-29T05:26:42;8.07;;;1.73;;
31424;SDS011;18054;51.572;7.372;2022-07-29T05:29:09;10.48;;;2.00;;
31424;SDS011;18054;51.572;7.372;2022-07-29T05:34:25;11.07;;;2.70;;
31424;SDS011;18054;51.572;7.372;2022-07-29T05:36:53;21.95;;;2.95;;
31424;SDS011;18054;51.572;7.372;2022-07-29T05:39:20;13.10;;;3.33;;
31424;SDS011;18054;51.572;7.372;2022-07-29T05:42:08;11.32;;;3.30;;
31424;SDS011;18054;51.572;7.372;2022-07-29T05:44:36;17.33;;;3.00;;
31424;SDS011;18054;51.572;7.372;2022-07-29T05:49:32;16.42;;;3.60;;
31424;SDS011;18054;51.572;7.372;2022-07-29T05:52:00;14.77;;;3.35;;
31424;SDS011;18054;51.572;7.372;2022-07-29T05:54:27;16.92;;;3.85;;
31424;SDS011;18054;51.572;7.372;2022-07-29T05:56:55;9.57;;;3.20;;
31424;SDS011;18054;51.572;7.372;2022-07-29T05:59:22;6.80;;;3.10;;
31424;SDS011;18054;51.572;7.372;2022-07-29T06:01:55;11.55;;;3.50;;
31424;SDS011;18054;51.572;7.372;2022-07-29T06:04:23;15.52;;;3.63;;
31424;SDS011;18054;51.572;7.372;2022-07-29T06:06:52;14.70;;;3.47;;
31424;SDS011;18054;51.572;7.372;2022-07-29T06:09:20;9.70;;;4.03;;
31424;SDS011;18054;51.572;7.372;2022-07-29T06:11:49;8.75;;;3.20;;
31424;SDS011;18054;51.572;7.372;2022-07-29T06:14:16;18.48;;;4.25;;
31424;SDS011;18054;51.572;7.372;2022-07-29T06:16:44;13.75;;;4.38;;
31424;SDS011;18054;51.572;7.372;2022-07-29T06:21:41;16.40;;;3.33;;
31424;SDS011;18054;51.572;7.372;2022-07-29T06:24:10;10.63;;;3.45;;
31424;SDS011;18054;51.572;7.372;2022-07-29T06:26:38;9.68;;;3.80;;
31424;SDS011;18054;51.572;7.372;2022-07-29T06:29:06;12.10;;;3.58;;
31424;SDS011;18054;51.572;7.372;2022-07-29T06:31:33;9.45;;;3.65;;
31424;SDS011;18054;51.572;7.372;2022-07-29T06:34:02;10.15;;;3.35;;
31424;SDS011;18054;51.572;7.372;2022-07-29T06:36:30;12.80;;;3.33;;
31424;SDS011;18054;51.572;7.372;2022-07-29T06:38:57;9.77;;;3.10;;
31424;SDS011;18054;51.572;7.372;2022-07-29T06:41:29;12.80;;;2.83;;
31424;SDS011;18054;51.572;7.372;2022-07-29T06:44:00;14.77;;;2.80;;
31424;SDS011;18054;51.572;7.372;2022-07-29T06:46:27;11.63;;;3.13;;
31424;SDS011;18054;51.572;7.372;2022-07-29T06:48:55;8.13;;;2.60;;
31424;SDS011;18054;51.572;7.372;2022-07-29T06:51:22;6.82;;;2.92;;
31424;SDS011;18054;51.572;7.372;2022-07-29T06:53:50;14.18;;;2.92;;
31424;SDS011;18054;51.572;7.372;2022-07-29T06:56:39;13.50;;;3.60;;
31424;SDS011;18054;51.572;7.372;2022-07-29T06:59:08;11.02;;;2.80;;
31424;SDS011;18054;51.572;7.372;2022-07-29T07:01:36;9.32;;;2.90;;
31424;SDS011;18054;51.572;7.372;2022-07-29T07:04:04;8.68;;;2.97;;
31424;SDS011;18054;51.572;7.372;2022-07-29T07:06:31;7.80;;;3.20;;
31424;SDS011;18054;51.572;7.372;2022-07-29T07:08:59;13.05;;;2.67;;
31424;SDS011;18054;51.572;7.372;2022-07-29T07:11:26;8.27;;;2.47;;
31424;SDS011;18054;51.572;7.372;2022-07-29T07:13:55;7.20;;;2.70;;
31424;SDS011;18054;51.572;7.372;2022-07-29T07:16:28;12.18;;;2.88;;
31424;SDS011;18054;51.572;7.372;2022-07-29T07:18:57;9.57;;;2.67;;
31424;SDS011;18054;51.572;7.372;2022-07-29T07:21:24;7.68;;;2.58;;
31424;SDS011;18054;51.572;7.372;2022-07-29T07:23:55;16.50;;;1.98;;
31424;SDS011;18054;51.572;7.372;2022-07-29T07:26:23;6.35;;;2.10;;
31424;SDS011;18054;51.572;7.372;2022-07-29T07:28:50;10.10;;;2.38;;
31424;SDS011;18054;51.572;7.372;2022-07-29T07:31:19;12.45;;;2.60;;
31424;SDS011;18054;51.572;7.372;2022-07-29T07:33:46;15.52;;;2.50;;
31424;SDS011;18054;51.572;7.372;2022-07-29T07:36:14;10.05;;;2.95;;
31424;SDS011;18054;51.572;7.372;2022-07-29T07:38:41;13.70;;;3.03;;
31424;SDS011;18054;51.572;7.372;2022-07-29T07:41:09;10.93;;;2.50;;
31424;SDS011;18054;51.572;7.372;2022-07-29T07:43:36;12.10;;;3.08;;
31424;SDS011;18054;51.572;7.372;2022-07-29T07:46:03;9.70;;;2.45;;
31424;SDS011;18054;51.572;7.372;2022-07-29T07:48:32;11.70;;;2.72;;
31424;SDS011;18054;51.572;7.372;2022-07-29T07:51:00;12.20;;;2.85;;
31424;SDS011;18054;51.572;7.372;2022-07-29T07:53:28;18.02;;;3.63;;
31424;SDS011;18054;51.572;7.372;2022-07-29T07:55:57;14.60;;;3.53;;
31424;SDS011;18054;51.572;7.372;2022-07-29T07:58:36;9.23;;;2.35;;
31424;SDS011;18054;51.572;7.372;2022-07-29T08:01:04;13.05;;;3.83;;
31424;SDS011;18054;51.572;7.372;2022-07-29T08:03:33;10.25;;;2.53;;
31424;SDS011;18054;51.572;7.372;2022-07-29T08:06:01;7.63;;;2.53;;
31424;SDS011;18054;51.572;7.372;2022-07-29T08:08:28;8.68;;;3.22;;
31424;SDS011;18054;51.572;7.372;2022-07-29T08:10:56;12.70;;;3.58;;
31424;SDS011;18054;51.572;7.372;2022-07-29T08:13:27;16.13;;;3.22;;
31424;SDS011;18054;51.572;7.372;2022-07-29T08:15:56;11.73;;;3.17;;
31424;SDS011;18054;51.572;7.372;2022-07-29T08:18:28;9.57;;;2.53;;
31424;SDS011;18054;51.572;7.372;2022-07-29T08:20:57;14.05;;;3.20;;
31424;SDS011;18054;51.572;7.372;2022-07-29T08:23:24;9.25;;;2.83;;
31424;SDS011;18054;51.572;7.372;2022-07-29T08:26:11;14.65;;;3.10;;
31424;SDS011;18054;51.572;7.372;2022-07-29T08:28:39;10.85;;;3.10;;
31424;SDS011;18054;51.572;7.372;2022-07-29T08:31:07;11.05;;;3.30;;
31424;SDS011;18054;51.572;7.372;2022-07-29T08:33:34;18.73;;;3.10;;
31424;SDS011;18054;51.572;7.372;2022-07-29T08:36:03;12.32;;;3.25;;
31424;SDS011;18054;51.572;7.372;2022-07-29T08:38:31;9.15;;;3.40;;
31424;SDS011;18054;51.572;7.372;2022-07-29T08:40:58;10.98;;;3.20;;
31424;SDS011;18054;51.572;7.372;2022-07-29T08:43:27;11.18;;;2.90;;
31424;SDS011;18054;51.572;7.372;2022-07-29T08:48:22;10.30;;;2.78;;
31424;SDS011;18054;51.572;7.372;2022-07-29T08:50:52;13.10;;;3.58;;
31424;SDS011;18054;51.572;7.372;2022-07-29T08:53:21;11.00;;;3.60;;
31424;SDS011;18054;51.572;7.372;2022-07-29T08:55:50;17.42;;;4.72;;
31424;SDS011;18054;51.572;7.372;2022-07-29T08:58:17;16.42;;;3.92;;
31424;SDS011;18054;51.572;7.372;2022-07-29T09:00:50;13.32;;;4.43;;
31424;SDS011;18054;51.572;7.372;2022-07-29T09:03:21;11.82;;;3.42;;
31424;SDS011;18054;51.572;7.372;2022-07-29T09:05:49;15.55;;;3.47;;
31424;SDS011;18054;51.572;7.372;2022-07-29T09:08:17;14.82;;;4.03;;
31424;SDS011;18054;51.572;7.372;2022-07-29T09:10:47;11.35;;;4.28;;
31424;SDS011;18054;51.572;7.372;2022-07-29T09:13:15;11.07;;;3.33;;
31424;SDS011;18054;51.572;7.372;2022-07-29T09:15:43;9.27;;;3.40;;
31424;SDS011;18054;51.572;7.372;2022-07-29T09:20:48;8.02;;;3.20;;
31424;SDS011;18054;51.572;7.372;2022-07-29T09:23:36;11.25;;;3.40;;
31424;SDS011;18054;51.572;7.372;2022-07-29T09:26:07;15.60;;;3.38;;
31424;SDS011;18054;51.572;7.372;2022-07-29T09:28:34;13.52;;;3.88;;
31424;SDS011;18054;51.572;7.372;2022-07-29T09:31:08;8.68;;;2.97;;
31424;SDS011;18054;51.572;7.372;2022-07-29T09:33:35;11.57;;;3.38;;
31424;SDS011;18054;51.572;7.372;2022-07-29T09:36:07;12.00;;;3.30;;
31424;SDS011;18054;51.572;7.372;2022-07-29T09:38:35;8.20;;;3.40;;
31424;SDS011;18054;51.572;7.372;2022-07-29T09:41:03;13.00;;;4.30;;
31424;SDS011;18054;51.572;7.372;2022-07-29T09:43:33;10.98;;;3.85;;
31424;SDS011;18054;51.572;7.372;2022-07-29T09:46:09;11.73;;;3.38;;
31424;SDS011;18054;51.572;7.372;2022-07-29T09:48:37;12.88;;;4.07;;
31424;SDS011;18054;51.572;7.372;2022-07-29T09:51:05;10.27;;;4.03;;
31424;SDS011;18054;51.572;7.372;2022-07-29T09:53:33;9.05;;;3.45;;
31424;SDS011;18054;51.572;7.372;2022-07-29T09:56:01;16.00;;;4.32;;
31424;SDS011;18054;51.572;7.372;2022-07-29T09:58:28;9.30;;;3.17;;
31424;SDS011;18054;51.572;7.372;2022-07-29T10:00:57;15.38;;;4.20;;
31424;SDS011;18054;51.572;7.372;2022-07-29T10:03:25;14.10;;;3.92;;
31424;SDS011;18054;51.572;7.372;2022-07-29T10:06:05;15.23;;;3.70;;
31424;SDS011;18054;51.572;7.372;2022-07-29T10:08:33;9.88;;;3.15;;
31424;SDS011;18054;51.572;7.372;2022-07-29T10:11:10;13.77;;;3.67;;
31424;SDS011;18054;51.572;7.372;2022-07-29T10:16:07;14.43;;;3.00;;
31424;SDS011;18054;51.572;7.372;2022-07-29T10:18:35;8.35;;;3.17;;
31424;SDS011;18054;51.572;7.372;2022-07-29T10:21:04;10.95;;;3.03;;
31424;SDS011;18054;51.572;7.372;2022-07-29T10:23:33;16.45;;;3.63;;
31424;SDS011;18054;51.572;7.372;2022-07-29T10:26:12;11.63;;;3.00;;
31424;SDS011;18054;51.572;7.372;2022-07-29T10:28:40;10.52;;;2.83;;
31424;SDS011;18054;51.572;7.372;2022-07-29T10:31:12;9.52;;;3.25;;
31424;SDS011;18054;51.572;7.372;2022-07-29T10:33:47;9.70;;;2.80;;
31424;SDS011;18054;51.572;7.372;2022-07-29T10:36:24;15.93;;;3.35;;
31424;SDS011;18054;51.572;7.372;2022-07-29T10:38:55;10.40;;;2.88;;
31424;SDS011;18054;51.572;7.372;2022-07-29T10:41:34;16.25;;;2.97;;
31424;SDS011;18054;51.572;7.372;2022-07-29T10:44:12;15.40;;;3.25;;
31424;SDS011;18054;51.572;7.372;2022-07-29T10:46:46;8.38;;;2.67;;
31424;SDS011;18054;51.572;7.372;2022-07-29T10:49:14;14.90;;;2.53;;
31424;SDS011;18054;51.572;7.372;2022-07-29T10:51:53;15.43;;;3.17;;
31424;SDS011;18054;51.572;7.372;2022-07-29T11:00:25;13.25;;;2.85;;
31424;SDS011;18054;51.572;7.372;2022-07-29T11:02:54;15.88;;;3.60;;
31424;SDS011;18054;51.572;7.372;2022-07-29T11:05:24;9.90;;;3.33;;
31424;SDS011;18054;51.572;7.372;2022-07-29T11:08:20;10.82;;;3.38;;
31424;SDS011;18054;51.572;7.372;2022-07-29T11:14:02;12.30;;;3.28;;
31424;SDS011;18054;51.572;7.372;2022-07-29T11:19:22;14.38;;;3.92;;
31424;SDS011;18054;51.572;7.372;2022-07-29T11:21:55;10.63;;;3.17;;
31424;SDS011;18054;51.572;7.372;2022-07-29T11:24:25;9.63;;;3.47;;
31424;SDS011;18054;51.572;7.372;2022-07-29T11:27:15;9.00;;;3.45;;
31424;SDS011;18054;51.572;7.372;2022-07-29T11:29:51;9.57;;;3.40;;
31424;SDS011;18054;51.572;7.372;2022-07-29T11:32:19;8.43;;;3.22;;
31424;SDS011;18054;51.572;7.372;2022-07-29T11:35:10;8.52;;;2.88;;
31424;SDS011;18054;51.572;7.372;2022-07-29T11:37:44;13.48;;;3.63;;
31424;SDS011;18054;51.572;7.372;2022-07-29T11:40:20;11.45;;;3.72;;
31424;SDS011;18054;51.572;7.372;2022-07-29T11:42:48;14.20;;;3.22;;
31424;SDS011;18054;51.572;7.372;2022-07-29T11:45:46;15.80;;;4.10;;
31424;SDS011;18054;51.572;7.372;2022-07-29T11:48:18;17.58;;;3.78;;
31424;SDS011;18054;51.572;7.372;2022-07-29T11:50:58;19.60;;;3.97;;
31424;SDS011;18054;51.572;7.372;2022-07-29T11:53:26;9.00;;;3.85;;
31424;SDS011;18054;51.572;7.372;2022-07-29T11:55:58;9.68;;;3.40;;
31424;SDS011;18054;51.572;7.372;2022-07-29T11:58:27;8.18;;;4.10;;
31424;SDS011;18054;51.572;7.372;2022-07-29T12:03:23;12.35;;;3.95;;
31424;SDS011;18054;51.572;7.372;2022-07-29T12:06:03;13.90;;;4.15;;
31424;SDS011;18054;51.572;7.372;2022-07-29T12:08:38;15.43;;;3.45;;
31424;SDS011;18054;51.572;7.372;2022-07-29T12:11:14;12.82;;;5.15;;
31424;SDS011;18054;51.572;7.372;2022-07-29T12:13:41;13.63;;;4.53;;
31424;SDS011;18054;51.572;7.372;2022-07-29T12:16:10;15.32;;;4.82;;
31424;SDS011;18054;51.572;7.372;2022-07-29T12:18:40;16.10;;;4.78;;
31424;SDS011;18054;51.572;7.372;2022-07-29T12:21:08;12.70;;;4.68;;
31424;SDS011;18054;51.572;7.372;2022-07-29T12:23:37;13.98;;;5.38;;
31424;SDS011;18054;51.572;7.372;2022-07-29T12:26:06;20.05;;;4.50;;
31424;SDS011;18054;51.572;7.372;2022-07-29T12:28:47;13.68;;;4.72;;
31424;SDS011;18054;51.572;7.372;2022-07-29T12:31:15;12.98;;;4.95;;
31424;SDS011;18054;51.572;7.372;2022-07-29T12:34:03;18.98;;;6.07;;
31424;SDS011;18054;51.572;7.372;2022-07-29T12:36:32;13.60;;;4.80;;
31424;SDS011;18054;51.572;7.372;2022-07-29T12:38:59;12.25;;;4.57;;
31424;SDS011;18054;51.572;7.372;2022-07-29T12:41:27;20.17;;;5.78;;
31424;SDS011;18054;51.572;7.372;2022-07-29T12:43:55;15.18;;;4.07;;
31424;SDS011;18054;51.572;7.372;2022-07-29T12:46:22;14.43;;;4.95;;
31424;SDS011;18054;51.572;7.372;2022-07-29T12:48:51;14.93;;;4.45;;
31424;SDS011;18054;51.572;7.372;2022-07-29T12:51:27;9.18;;;4.30;;
31424;SDS011;18054;51.572;7.372;2022-07-29T12:54:02;10.48;;;4.32;;
31424;SDS011;18054;51.572;7.372;2022-07-29T12:56:30;9.77;;;4.65;;
31424;SDS011;18054;51.572;7.372;2022-07-29T12:59:12;15.93;;;4.47;;
31424;SDS011;18054;51.572;7.372;2022-07-29T13:01:40;10.32;;;3.78;;
31424;SDS011;18054;51.572;7.372;2022-07-29T13:06:39;11.23;;;4.15;;
31424;SDS011;18054;51.572;7.372;2022-07-29T13:09:09;18.98;;;4.90;;
31424;SDS011;18054;51.572;7.372;2022-07-29T13:11:37;16.40;;;4.82;;
31424;SDS011;18054;51.572;7.372;2022-07-29T13:14:11;9.43;;;4.53;;
31424;SDS011;18054;51.572;7.372;2022-07-29T13:19:31;10.40;;;4.20;;
31424;SDS011;18054;51.572;7.372;2022-07-29T13:21:59;13.88;;;4.43;;
31424;SDS011;18054;51.572;7.372;2022-07-29T13:24:28;12.45;;;4.00;;
31424;SDS011;18054;51.572;7.372;2022-07-29T13:26:55;14.32;;;4.60;;
31424;SDS011;18054;51.572;7.372;2022-07-29T13:31:56;20.05;;;4.03;;
31424;SDS011;18054;51.572;7.372;2022-07-29T13:34:24;8.77;;;3.88;;
31424;SDS011;18054;51.572;7.372;2022-07-29T13:36:52;12.40;;;3.35;;
31424;SDS011;18054;51.572;7.372;2022-07-29T13:39:19;8.50;;;3.88;;
31424;SDS011;18054;51.572;7.372;2022-07-29T13:41:48;13.30;;;3.88;;
31424;SDS011;18054;51.572;7.372;2022-07-29T13:44:16;14.50;;;4.15;;
31424;SDS011;18054;51.572;7.372;2022-07-29T13:46:43;14.80;;;4.18;;
31424;SDS011;18054;51.572;7.372;2022-07-29T13:49:11;12.93;;;3.53;;
31424;SDS011;18054;51.572;7.372;2022-07-29T13:54:06;12.43;;;4.40;;
31424;SDS011;18054;51.572;7.372;2022-07-29T13:59:02;9.30;;;3.20;;
31424;SDS011;18054;51.572;7.372;2022-07-29T14:01:30;10.57;;;3.13;;
31424;SDS011;18054;51.572;7.372;2022-07-29T14:03:57;14.38;;;3.20;;
31424;SDS011;18054;51.572;7.372;2022-07-29T14:06:25;9.45;;;2.90;;
31424;SDS011;18054;51.572;7.372;2022-07-29T14:08:55;8.65;;;3.10;;
31424;SDS011;18054;51.572;7.372;2022-07-29T14:11:22;10.43;;;3.33;;
31424;SDS011;18054;51.572;7.372;2022-07-29T14:13:50;8.65;;;2.55;;
31424;SDS011;18054;51.572;7.372;2022-07-29T14:26:08;9.82;;;2.75;;
31424;SDS011;18054;51.572;7.372;2022-07-29T14:28:46;9.80;;;3.45;;
31424;SDS011;18054;51.572;7.372;2022-07-29T14:31:14;8.70;;;2.83;;
31424;SDS011;18054;51.572;7.372;2022-07-29T14:33:42;10.77;;;3.83;;
31424;SDS011;18054;51.572;7.372;2022-07-29T14:36:14;11.93;;;2.90;;
31424;SDS011;18054;51.572;7.372;2022-07-29T14:38:41;13.85;;;3.30;;
31424;SDS011;18054;51.572;7.372;2022-07-29T14:41:11;14.32;;;2.92;;
31424;SDS011;18054;51.572;7.372;2022-07-29T14:43:38;11.55;;;3.22;;
31424;SDS011;18054;51.572;7.372;2022-07-29T14:48:34;11.15;;;3.30;;
31424;SDS011;18054;51.572;7.372;2022-07-29T14:53:30;11.05;;;3.05;;
31424;SDS011;18054;51.572;7.372;2022-07-29T14:55:57;9.02;;;2.88;;
31424;SDS011;18054;51.572;7.372;2022-07-29T14:58:49;9.65;;;2.70;;
31424;SDS011;18054;51.572;7.372;2022-07-29T15:01:17;11.05;;;3.30;;
31424;SDS011;18054;51.572;7.372;2022-07-29T15:28:19;10.35;;;2.45;;
31424;SDS011;18054;51.572;7.372;2022-07-29T15:30:46;14.30;;;2.78;;
31424;SDS011;18054;51.572;7.372;2022-07-29T15:33:14;12.57;;;2.63;;
31424;SDS011;18054;51.572;7.372;2022-07-29T15:35:41;15.70;;;2.92;;
31424;SDS011;18054;51.572;7.372;2022-07-29T15:38:09;13.07;;;3.53;;
31424;SDS011;18054;51.572;7.372;2022-07-29T15:40:36;11.20;;;2.60;;
31424;SDS011;18054;51.572;7.372;2022-07-29T15:43:04;9.73;;;3.20;;
31424;SDS011;18054;51.572;7.372;2022-07-29T15:45:36;6.82;;;2.28;;
31424;SDS011;18054;51.572;7.372;2022-07-29T15:48:06;9.73;;;2.72;;
31424;SDS011;18054;51.572;7.372;2022-07-29T15:50:34;14.00;;;2.50;;
31424;SDS011;18054;51.572;7.372;2022-07-29T15:55:29;10.68;;;2.38;;
31424;SDS011;18054;51.572;7.372;2022-07-29T15:57:56;12.93;;;2.60;;
31424;SDS011;18054;51.572;7.372;2022-07-29T16:00:26;19.42;;;4.18;;
31424;SDS011;18054;51.572;7.372;2022-07-29T16:02:55;24.75;;;3.75;;
31424;SDS011;18054;51.572;7.372;2022-07-29T16:05:23;26.30;;;3.47;;
31424;SDS011;18054;51.572;7.372;2022-07-29T16:07:50;11.95;;;2.42;;
31424;SDS011;18054;51.572;7.372;2022-07-29T16:10:18;14.65;;;3.30;;
31424;SDS011;18054;51.572;7.372;2022-07-29T16:12:45;8.77;;;2.25;;
31424;SDS011;18054;51.572;7.372;2022-07-29T16:15:13;12.00;;;2.55;;
31424;SDS011;18054;51.572;7.372;2022-07-29T16:17:40;28.58;;;3.60;;
31424;SDS011;18054;51.572;7.372;2022-07-29T16:20:09;8.98;;;2.22;;
31424;SDS011;18054;51.572;7.372;2022-07-29T16:22:39;12.85;;;2.28;;
31424;SDS011;18054;51.572;7.372;2022-07-29T16:25:07;14.05;;;2.50;;